AYMO/MAS METAR and TAF weather

Enter ICAO airport designator
Station Type Date Time Source
AYMO METAR 2021/06/22 00:00 UTC NOAA

AYMO 220000Z VRB02KT 9999 SCT018 30/26 Q1013


Station Type Date Time Source
AYMO Decoded METAR 2021/06/22 00:00 UTC NOAA

Manus Island/Momote, Papua New Guinea (AYMO) 02-03-43S 147-25-27E
Jun 21, 2021 - 08:00 PM EDT / 2021.06.22 0000 UTC
Wind: Variable at 2 MPH (2 KT):0
Visibility: greater than 7 mile(s):0
Sky conditions: partly cloudy
Temperature: 86 F (30 C)
Heat index: 99.3 F (37.4 C):1
Dew Point: 78 F (26 C)
Relative Humidity: 79%
Pressure (altimeter): 29.91 in. Hg (1013 hPa)
ob: AYMO 220000Z VRB02KT 9999 SCT018 30/26 Q1013
cycle: 0

Station Type Date Time Source
AYMO TAF 2018/08/02 20:51 UTC NOAA

TAF TAF AYMO 021437Z 0220/0308 16010KT 9999 SCT018 BKN140 Q1008 1010 1009 1007

Example: see airport list